Terminal Aerodrome Forecast
Issued by NWS

Home | Current Version | Previous Version | Text Only | Print | Product List | Glossary On
Versions: 1 2 3 4 5 6 7 8 9 10 11 12 13 14 15
000
FTUS43 KTOP 150959 AAA
TAFFOE
TAF AMD
KFOE 150959Z 1510/1606 31006KT P6SM FEW015 BKN021
     FM151200 30005KT P6SM FEW200
     FM151800 24010KT P6SM FEW250=

USA.gov is the U.S. government's official web portal to all federal, state and local government web resources and services.